createdAt,value
2022-12-08T00:01:41.168Z,24.50
2022-12-08T00:05:02.823Z,23.10
2022-12-08T00:08:24.381Z,22.85
2022-12-08T00:11:26.751Z,23.63
2022-12-08T00:14:30.877Z,24.40
2022-12-08T00:17:34.506Z,22.50
2022-12-08T00:20:37.010Z,21.55
2022-12-08T00:23:39.398Z,24.90
2022-12-08T00:26:41.723Z,23.00
2022-12-08T00:29:44.982Z,23.20
2022-12-08T00:32:48.688Z,23.05
2022-12-08T00:35:50.993Z,23.15
2022-12-08T00:38:53.256Z,21.83
2022-12-08T00:42:13.941Z,23.58
2022-12-08T00:45:16.359Z,20.20
2022-12-08T00:48:19.957Z,20.85
2022-12-08T00:51:22.161Z,21.67
2022-12-08T00:54:24.816Z,23.83
2022-12-08T00:57:27.129Z,22.33
2022-12-08T01:00:29.418Z,25.15
2022-12-08T01:03:33.618Z,18.70
2022-12-08T01:06:36.295Z,25.27
2022-12-08T01:09:38.627Z,23.45
2022-12-08T01:12:40.943Z,23.10
2022-12-08T01:15:43.177Z,22.40
2022-12-08T01:18:46.833Z,23.45
2022-12-08T01:21:49.385Z,21.15
2022-12-08T01:24:51.749Z,22.23
2022-12-08T01:27:54.074Z,20.38
2022-12-08T01:30:56.441Z,22.20
2022-12-08T01:34:00.038Z,23.42
2022-12-08T01:37:02.301Z,24.15
2022-12-08T01:40:06.856Z,22.05
2022-12-08T01:43:11.127Z,20.98
2022-12-08T01:46:13.522Z,27.35
2022-12-08T01:49:20.175Z,20.73
2022-12-08T01:52:27.339Z,19.63
2022-12-08T01:55:32.024Z,23.15
2022-12-08T01:58:36.934Z,17.60
2022-12-08T02:01:39.410Z,19.73
2022-12-08T02:04:43.138Z,19.38
2022-12-08T02:07:46.641Z,20.55
2022-12-08T02:10:49.413Z,18.17
2022-12-08T02:13:53.254Z,15.82
2022-12-08T02:17:00.201Z,14.60
2022-12-08T02:20:32.217Z,16.73
2022-12-08T02:23:44.385Z,19.23
2022-12-08T02:27:31.041Z,13.00
2022-12-08T02:30:38.747Z,15.68
2022-12-08T02:33:58.689Z,15.60
2022-12-08T02:37:08.278Z,15.38
2022-12-08T02:40:19.969Z,12.68
2022-12-08T02:43:28.351Z,18.25
2022-12-08T02:46:34.434Z,12.32
2022-12-08T02:49:38.115Z,12.43
2022-12-08T02:52:45.180Z,14.10
2022-12-08T02:55:56.358Z,11.55
2022-12-08T02:59:14.999Z,10.15
2022-12-08T03:02:29.695Z,13.45
2022-12-08T03:05:45.794Z,16.02
2022-12-08T03:08:52.045Z,10.68
2022-12-08T03:11:57.570Z,11.57
2022-12-08T03:15:03.794Z,13.05
2022-12-08T03:18:07.157Z,9.73
2022-12-08T03:21:11.254Z,13.27
2022-12-08T03:24:15.546Z,11.15
2022-12-08T03:27:20.222Z,10.02
2022-12-08T03:30:22.490Z,20.35
2022-12-08T03:33:27.826Z,13.43
2022-12-08T03:36:32.058Z,12.45
2022-12-08T03:39:34.289Z,13.18
2022-12-08T03:42:36.536Z,10.52
2022-12-08T03:45:38.751Z,9.98
2022-12-08T03:48:41.057Z,12.13
2022-12-08T03:51:44.773Z,12.65
2022-12-08T03:54:47.110Z,12.82
2022-12-08T03:57:49.373Z,10.73
2022-12-08T04:00:51.801Z,13.32
2022-12-08T04:03:54.514Z,10.70
2022-12-08T04:06:58.189Z,10.85
2022-12-08T04:10:00.552Z,13.20
2022-12-08T04:13:02.845Z,14.45
2022-12-08T04:16:06.312Z,11.45
2022-12-08T04:19:08.900Z,11.63
2022-12-08T04:22:12.622Z,10.52
2022-12-08T04:25:15.060Z,11.38
2022-12-08T04:28:17.442Z,12.27
2022-12-08T04:31:19.817Z,12.25
2022-12-08T04:34:22.245Z,9.70
2022-12-08T04:37:25.860Z,10.07
2022-12-08T04:40:28.264Z,12.93
2022-12-08T04:43:30.531Z,12.27
2022-12-08T04:46:32.886Z,15.20
2022-12-08T04:49:35.144Z,13.50
2022-12-08T04:52:39.260Z,12.85
2022-12-08T04:55:43.772Z,14.98
2022-12-08T04:58:46.043Z,12.57
2022-12-08T05:01:48.560Z,11.57
2022-12-08T05:04:50.861Z,11.65
2022-12-08T05:07:54.560Z,11.35
2022-12-08T05:11:02.170Z,14.88
2022-12-08T05:14:04.462Z,15.13
2022-12-08T05:17:09.655Z,13.63
2022-12-08T05:20:12.903Z,19.63
2022-12-08T05:23:16.595Z,19.35
2022-12-08T05:26:18.845Z,14.98
2022-12-08T05:29:21.182Z,18.73
2022-12-08T05:32:23.681Z,20.92
2022-12-08T05:35:25.936Z,16.88
2022-12-08T05:38:29.621Z,21.92
2022-12-08T05:41:32.111Z,23.60
2022-12-08T05:44:34.345Z,27.73
2022-12-08T05:47:36.661Z,27.02
2022-12-08T05:50:38.905Z,25.55
2022-12-08T05:53:43.073Z,25.25
2022-12-08T05:56:45.448Z,24.17
2022-12-08T05:59:47.679Z,23.48
2022-12-08T06:02:50.098Z,29.33
2022-12-08T06:05:52.502Z,25.77
2022-12-08T06:08:56.363Z,26.38
2022-12-08T06:11:58.635Z,24.40
2022-12-08T06:15:00.962Z,24.30
2022-12-08T06:18:03.711Z,23.35
2022-12-08T06:21:07.623Z,25.58
2022-12-08T06:24:11.837Z,21.33
2022-12-08T06:27:14.112Z,27.35
2022-12-08T06:30:17.115Z,23.23
2022-12-08T06:33:19.361Z,19.73
2022-12-08T06:36:22.982Z,23.88
2022-12-08T06:39:26.963Z,24.92
2022-12-08T06:42:44.446Z,23.30
2022-12-08T06:45:46.895Z,22.95
2022-12-08T06:48:50.643Z,25.25
2022-12-08T06:51:52.926Z,29.00
2022-12-08T06:54:56.600Z,27.85
2022-12-08T06:57:59.490Z,26.75
2022-12-08T07:01:06.634Z,26.42
2022-12-08T07:04:08.968Z,22.25
2022-12-08T07:07:11.248Z,24.73
2022-12-08T07:10:15.066Z,22.20
2022-12-08T07:13:17.377Z,20.63
2022-12-08T07:16:19.797Z,20.98
2022-12-08T07:19:22.906Z,23.73
2022-12-08T07:22:25.178Z,23.02
2022-12-08T07:25:28.826Z,18.88
2022-12-08T07:28:32.257Z,19.80
2022-12-08T07:31:34.778Z,22.63
2022-12-08T07:34:37.090Z,25.05
2022-12-08T07:37:39.469Z,20.15
2022-12-08T07:40:43.142Z,20.60
2022-12-08T07:43:45.928Z,22.58
2022-12-08T07:46:48.214Z,21.40
2022-12-08T07:49:50.597Z,19.83
2022-12-08T07:52:54.187Z,25.83
2022-12-08T07:55:58.303Z,18.38
2022-12-08T07:59:02.577Z,20.95
2022-12-08T08:02:23.601Z,21.83
2022-12-08T08:05:26.898Z,21.35
2022-12-08T08:08:29.282Z,18.10
2022-12-08T08:11:33.035Z,17.90
2022-12-08T08:14:35.379Z,19.35
2022-12-08T08:17:38.100Z,19.73
2022-12-08T08:20:41.056Z,17.27
2022-12-08T08:23:43.427Z,22.17
2022-12-08T08:26:47.580Z,17.17
2022-12-08T08:29:49.913Z,17.25
2022-12-08T08:32:52.366Z,21.02
2022-12-08T08:35:55.022Z,19.80
2022-12-08T08:38:57.318Z,21.80
2022-12-08T08:42:01.056Z,20.90
2022-12-08T08:45:03.786Z,20.83
2022-12-08T08:48:06.252Z,18.35
2022-12-08T08:51:09.674Z,20.58
2022-12-08T08:54:12.710Z,12.73
2022-12-08T08:57:18.466Z,17.45
2022-12-08T09:00:24.618Z,18.45
2022-12-08T09:03:27.671Z,14.98
2022-12-08T09:06:30.904Z,19.10
2022-12-08T09:09:33.221Z,18.27
2022-12-08T09:12:36.850Z,15.55
2022-12-08T09:15:39.283Z,14.25
2022-12-08T09:18:41.572Z,16.40
2022-12-08T09:21:43.957Z,14.02
2022-12-08T09:24:46.261Z,11.75
2022-12-08T09:27:49.994Z,10.38
2022-12-08T09:30:52.901Z,10.38
2022-12-08T09:33:55.255Z,10.73
2022-12-08T09:36:57.714Z,10.38
2022-12-08T09:40:00.047Z,11.48
2022-12-08T09:43:09.658Z,10.55
2022-12-08T09:46:14.881Z,13.15
2022-12-08T09:49:34.933Z,12.68
2022-12-08T09:52:42.058Z,7.65
2022-12-08T09:55:47.986Z,7.78
2022-12-08T09:58:54.046Z,9.60
2022-12-08T10:01:56.549Z,6.75
2022-12-08T10:04:59.530Z,8.80
2022-12-08T10:08:10.256Z,5.95
2022-12-08T10:11:16.911Z,5.15
2022-12-08T10:14:25.875Z,5.45
2022-12-08T10:17:42.395Z,3.50
2022-12-08T10:20:46.308Z,5.65
2022-12-08T10:23:50.905Z,6.50
2022-12-08T10:26:54.013Z,9.30
2022-12-08T10:29:57.682Z,9.75
2022-12-08T10:33:00.113Z,10.30
2022-12-08T10:36:04.625Z,10.98
2022-12-08T10:39:29.193Z,8.52
2022-12-08T10:42:35.696Z,11.27
2022-12-08T10:45:41.849Z,13.05
2022-12-08T10:48:49.530Z,11.07
2022-12-08T10:51:52.087Z,11.73
2022-12-08T10:54:54.775Z,11.52
2022-12-08T10:57:57.148Z,11.63
2022-12-08T11:01:04.372Z,10.65
2022-12-08T11:04:13.770Z,10.90
2022-12-08T11:07:21.959Z,12.35
2022-12-08T11:10:35.683Z,14.30
2022-12-08T11:13:41.511Z,8.38
2022-12-08T11:16:45.315Z,6.93
2022-12-08T11:19:57.286Z,4.47
2022-12-08T11:26:07.424Z,4.68
2022-12-08T11:29:11.111Z,4.40
2022-12-08T11:32:14.839Z,4.30
2022-12-08T11:35:23.184Z,4.68
2022-12-08T11:38:27.293Z,3.97
2022-12-08T11:41:32.349Z,3.35
2022-12-08T11:44:40.794Z,2.55
2022-12-08T11:47:54.162Z,2.45
2022-12-08T11:51:00.966Z,2.15
2022-12-08T11:54:14.100Z,2.35
2022-12-08T11:57:20.786Z,5.38
2022-12-08T12:00:23.419Z,4.00
2022-12-08T12:03:30.422Z,3.35
2022-12-08T12:07:13.335Z,6.20
2022-12-08T12:10:31.929Z,6.57
2022-12-08T12:13:48.157Z,8.90
2022-12-08T12:17:00.705Z,7.75
2022-12-08T12:20:12.272Z,8.30
2022-12-08T12:23:18.712Z,10.48
2022-12-08T12:26:23.145Z,11.90
2022-12-08T12:29:29.856Z,12.57
2022-12-08T12:32:45.769Z,14.02
2022-12-08T12:35:50.671Z,14.55
2022-12-08T12:39:06.172Z,13.68
2022-12-08T12:42:08.538Z,14.48
2022-12-08T12:45:26.030Z,20.60
2022-12-08T12:48:28.383Z,14.10
2022-12-08T12:51:45.550Z,15.75
2022-12-08T12:55:29.954Z,12.15
2022-12-08T12:58:42.410Z,13.00
2022-12-08T13:01:52.313Z,14.63
2022-12-08T13:04:58.492Z,14.70
2022-12-08T13:08:03.143Z,10.52
2022-12-08T13:11:11.028Z,13.55
2022-12-08T13:14:30.185Z,9.25
2022-12-08T13:17:34.234Z,14.82
2022-12-08T13:20:52.866Z,10.73
2022-12-08T13:24:14.065Z,11.75
2022-12-08T13:27:34.068Z,9.80
2022-12-08T13:30:44.302Z,10.77
2022-12-08T13:33:49.691Z,12.20
2022-12-08T13:37:07.675Z,11.13
2022-12-08T13:40:16.392Z,9.25
2022-12-08T13:43:38.755Z,9.68
2022-12-08T13:57:11.043Z,8.38
2022-12-08T14:00:19.877Z,9.02
2022-12-08T14:03:22.191Z,5.65
2022-12-08T14:06:28.970Z,9.55
2022-12-08T14:09:35.028Z,3.78
2022-12-08T14:12:37.553Z,7.05
2022-12-08T14:15:41.469Z,6.50
2022-12-08T14:18:43.878Z,11.43
2022-12-08T14:21:57.408Z,9.02
2022-12-08T14:24:59.751Z,5.90
2022-12-08T14:28:03.987Z,6.10
2022-12-08T14:31:08.693Z,8.38
2022-12-08T14:34:11.099Z,6.00
2022-12-08T14:37:13.751Z,7.65
2022-12-08T14:40:23.473Z,5.38
2022-12-08T14:43:29.231Z,10.05
2022-12-08T14:46:33.048Z,10.00
2022-12-08T14:49:37.641Z,6.05
2022-12-08T14:52:43.358Z,8.02
2022-12-08T14:55:47.701Z,7.65
2022-12-08T14:58:51.850Z,9.48
2022-12-08T15:02:13.884Z,6.40
2022-12-08T15:08:20.151Z,5.93
2022-12-08T15:11:31.623Z,7.25
2022-12-08T15:14:36.981Z,5.47
2022-12-08T15:17:55.855Z,8.57
2022-12-08T15:21:18.228Z,8.77
2022-12-08T15:25:40.256Z,6.95
2022-12-08T15:30:03.536Z,10.00
2022-12-08T15:38:04.698Z,8.48
2022-12-08T15:41:58.199Z,8.55
2022-12-08T15:49:12.699Z,6.82
2022-12-08T15:53:36.104Z,6.70
2022-12-08T16:03:13.210Z,7.40
2022-12-08T16:11:29.247Z,10.10
2022-12-08T16:15:47.178Z,8.50
2022-12-08T16:18:31.468Z,13.45
2022-12-08T16:25:05.025Z,10.23
2022-12-08T16:28:52.116Z,10.32
2022-12-08T16:31:40.556Z,11.05
2022-12-08T16:34:43.351Z,8.32
2022-12-08T16:37:54.430Z,7.00
2022-12-08T16:41:15.185Z,7.90
2022-12-08T16:44:17.674Z,9.60
2022-12-08T16:47:19.970Z,6.78
2022-12-08T16:50:23.884Z,7.53
2022-12-08T16:53:27.505Z,7.28
2022-12-08T16:56:33.071Z,9.05
2022-12-08T16:59:37.604Z,9.70
2022-12-08T17:02:40.068Z,9.93
2022-12-08T17:05:42.756Z,14.02
2022-12-08T17:08:46.574Z,10.95
2022-12-08T17:11:48.910Z,11.10
2022-12-08T17:14:51.174Z,8.43
2022-12-08T17:17:54.127Z,9.88
2022-12-08T17:20:56.396Z,9.52
2022-12-08T17:24:00.181Z,9.02
2022-12-08T17:27:06.381Z,10.18
2022-12-08T17:30:11.832Z,10.40
2022-12-08T17:33:14.716Z,11.30
2022-12-08T17:36:17.515Z,9.23
2022-12-08T17:39:21.287Z,7.47
2022-12-08T17:42:26.084Z,11.50
2022-12-08T17:45:28.798Z,13.05
2022-12-08T17:48:31.261Z,9.15
2022-12-08T17:51:33.638Z,8.02
2022-12-08T17:54:37.717Z,7.72
2022-12-08T17:57:40.252Z,8.65
2022-12-08T18:00:42.744Z,9.07
2022-12-08T18:03:45.177Z,8.57
2022-12-08T18:06:47.597Z,7.40
2022-12-08T18:09:51.523Z,9.95
2022-12-08T18:12:53.999Z,8.95
2022-12-08T18:15:56.383Z,9.20
2022-12-08T18:18:59.075Z,10.23
2022-12-08T18:22:01.829Z,9.07
2022-12-08T18:25:06.871Z,10.50
2022-12-08T18:28:10.637Z,13.75
2022-12-08T18:31:16.119Z,8.13
2022-12-08T18:34:21.393Z,9.07
2022-12-08T18:37:23.773Z,6.60
2022-12-08T18:40:27.863Z,8.13
2022-12-08T18:43:30.536Z,6.55
2022-12-08T18:46:32.911Z,7.20
2022-12-08T18:49:39.355Z,9.43
2022-12-08T18:52:42.100Z,11.20
2022-12-08T18:55:46.734Z,10.63
2022-12-08T18:58:49.383Z,6.85
2022-12-08T19:01:51.703Z,6.05
2022-12-08T19:04:55.378Z,7.38
2022-12-08T19:07:57.928Z,9.50
2022-12-08T19:11:01.850Z,12.80
2022-12-08T19:14:05.103Z,8.18
2022-12-08T19:17:09.154Z,14.13
2022-12-08T19:20:15.369Z,8.30
2022-12-08T19:23:17.704Z,13.93
2022-12-08T19:26:22.608Z,9.55
2022-12-08T19:29:27.191Z,8.77
2022-12-08T19:32:32.485Z,9.60
2022-12-08T19:35:40.478Z,9.23
2022-12-08T19:39:03.081Z,10.52
2022-12-08T19:42:31.889Z,10.23
2022-12-08T19:45:36.384Z,10.18
2022-12-08T19:48:38.816Z,9.45
2022-12-08T19:51:41.163Z,20.02
2022-12-08T19:54:43.864Z,9.50
2022-12-08T19:57:47.606Z,11.45
2022-12-08T20:00:50.163Z,10.88
2022-12-08T20:03:52.721Z,14.68
2022-12-08T20:06:56.459Z,11.18
2022-12-08T20:10:04.019Z,12.60
2022-12-08T20:13:27.173Z,11.43
2022-12-08T20:16:29.921Z,11.50
2022-12-08T20:19:32.337Z,7.35
2022-12-08T20:22:34.713Z,16.70
2022-12-08T20:25:38.695Z,12.90
2022-12-08T20:28:42.920Z,9.50
2022-12-08T20:31:46.763Z,12.07
2022-12-08T20:34:49.411Z,13.80
2022-12-08T20:37:51.842Z,13.68
2022-12-08T20:40:54.382Z,10.27
2022-12-08T20:43:58.019Z,18.83
2022-12-08T20:47:00.382Z,14.90
2022-12-08T20:50:04.684Z,15.65
2022-12-08T20:53:07.632Z,14.20
2022-12-08T20:56:14.576Z,16.20
2022-12-08T20:59:18.644Z,11.60
2022-12-08T21:02:21.153Z,15.02
2022-12-08T21:05:23.545Z,16.90
2022-12-08T21:08:25.910Z,20.55
2022-12-08T21:11:28.440Z,11.65
2022-12-08T21:14:32.131Z,16.40
2022-12-08T21:17:34.448Z,12.35
2022-12-08T21:20:37.037Z,16.55
2022-12-08T21:23:39.655Z,12.40
2022-12-08T21:26:42.003Z,12.68
2022-12-08T21:29:46.090Z,15.43
2022-12-08T21:32:48.493Z,13.35
2022-12-08T21:35:51.147Z,22.95
2022-12-08T21:38:55.006Z,12.88
2022-12-08T21:42:17.460Z,16.08
2022-12-08T21:45:22.655Z,14.07
2022-12-08T21:48:26.413Z,14.52
2022-12-08T21:51:29.209Z,14.88
2022-12-08T21:54:31.846Z,12.77
2022-12-08T21:57:34.533Z,12.38
2022-12-08T22:00:38.480Z,12.90
2022-12-08T22:03:41.883Z,11.00
2022-12-08T22:06:44.531Z,15.57
2022-12-08T22:09:47.403Z,16.30
2022-12-08T22:12:50.145Z,15.10
2022-12-08T22:15:57.534Z,14.25
2022-12-08T22:19:00.212Z,15.50
2022-12-08T22:22:02.702Z,12.15
2022-12-08T22:25:06.419Z,13.73
2022-12-08T22:28:09.206Z,16.02
2022-12-08T22:31:14.822Z,13.65
2022-12-08T22:34:17.222Z,13.82
2022-12-08T22:37:19.709Z,16.00
2022-12-08T22:40:22.413Z,16.25
2022-12-08T22:43:25.207Z,17.48
2022-12-08T22:46:29.348Z,13.48
2022-12-08T22:49:31.726Z,10.40
2022-12-08T22:52:35.666Z,12.07
2022-12-08T22:55:41.208Z,15.00
2022-12-08T22:58:44.482Z,14.20
2022-12-08T23:01:48.365Z,14.00
2022-12-08T23:04:51.064Z,12.20
2022-12-08T23:07:53.897Z,16.30
2022-12-08T23:10:56.527Z,13.93
2022-12-08T23:14:00.356Z,14.10
2022-12-08T23:17:04.386Z,14.18
2022-12-08T23:20:08.221Z,15.60
2022-12-08T23:23:10.828Z,11.90
2022-12-08T23:26:18.472Z,15.52
2022-12-08T23:29:20.778Z,15.13
2022-12-08T23:32:24.913Z,13.43
2022-12-08T23:35:27.336Z,17.40
2022-12-08T23:38:29.862Z,15.02
2022-12-08T23:41:32.228Z,18.02
2022-12-08T23:44:34.548Z,15.70
2022-12-08T23:47:38.165Z,18.83
2022-12-08T23:50:40.487Z,14.65
2022-12-08T23:53:43.090Z,17.67
2022-12-08T23:56:45.456Z,16.38
2022-12-08T23:59:47.722Z,17.30
